Leadville, CO

8:47 AM MST on February 07, 2016 (GMT -0700)
Lake County | | Change Station
CLOSE
Current Station
Airport
Location: Leadville,
Elevation: 9928 ft
Nearby Weather Stations

Elev 9928 ft 39.23 °N, 106.32 °W | Updated 54 minutes ago

Overcast
Overcast
20 °F
Feels Like 7 °F
N
13
Wind Variable Wind from North
Gusts 22 mph

Today
High -- | Low -- °F
--% Chance of Precip.
Yesterday
High -- | Low -- °F
Precip. -- in
Pressure 30.36 in
Visibility 10.0 miles
Clouds Overcast 7000 ft
Windchill 7 °F
Dew Point 8 °F
Humidity 60%
Rainfall 0.00 in
Snow Depth Not available.
7:06 AM 5:32 PM
Waning Crescent, 1% visible
METAR KLXV 071453Z AUTO 35011G19KT 10SM OVC070 M07/M13 A3035 RMK AO2 SLP280 T10671133 53015
Pressure 30.36 in
Visibility 10.0 miles
Clouds Overcast 7000 ft
Windchill 7 °F
Dew Point 8 °F
Humidity 60%
Rainfall 0.00 in
Snow Depth Not available.
7:06 AM 5:32 PM
Waning Crescent, 1% visible
METAR KLXV 071453Z AUTO 35011G19KT 10SM OVC070 M07/M13 A3035 RMK AO2 SLP280 T10671133 53015

10-Day Weather Forecast

Almanac

Astronomy

Feb. 07, 2016 Rise Set
Actual Time
Civil Twilight
Nautical Twilight
Astronomical Twilight
Moon
Length of Visible Light
Length of Day
Tomorrow will be .
, % of the Moon is Illuminated

Today's Extremes

State Highs State Lows

Community

WunderPhotos

Upload Photos

1,891,216 photos uploaded!

WunderBlog® & News

Nearby

Air Quality

  Air Quality AQ Index Pollutant
Not available.

Snow Depth

Station Depth Elevation

Earthquake Activity

City Distance Mag. Time & Date
Minimum magnitude displayed is 2.5.

Coastal Water Temperatures

Place Temperature

Stations

Nearby Weather Stations

Station Location Temp. Windchill Dew Point Humidity Wind Precip. Elev Updated Type
                   

Watches & Warnings

There are currently no watches in effect.